sensor_id;sensor_type;location;lat;lon;timestamp;temperature;humidity
55331;DHT22;58851;42.984;20.336;2023-09-12T00:01:45;333.30;128.00
55331;DHT22;58851;42.984;20.336;2023-09-12T00:04:11;333.30;128.00
55331;DHT22;58851;42.984;20.336;2023-09-12T00:06:37;333.20;128.00
55331;DHT22;58851;42.984;20.336;2023-09-12T00:09:03;333.20;128.00
55331;DHT22;58851;42.984;20.336;2023-09-12T00:11:31;333.20;128.00
55331;DHT22;58851;42.984;20.336;2023-09-12T00:13:58;333.10;128.00
55331;DHT22;58851;42.984;20.336;2023-09-12T00:16:25;333.00;128.00
55331;DHT22;58851;42.984;20.336;2023-09-12T00:18:50;333.10;128.00
55331;DHT22;58851;42.984;20.336;2023-09-12T00:21:16;333.00;128.00
55331;DHT22;58851;42.984;20.336;2023-09-12T00:23:42;332.80;128.00
55331;DHT22;58851;42.984;20.336;2023-09-12T00:26:08;332.80;128.00
55331;DHT22;58851;42.984;20.336;2023-09-12T00:28:34;332.80;128.00
55331;DHT22;58851;42.984;20.336;2023-09-12T00:31:00;332.90;128.00
55331;DHT22;58851;42.984;20.336;2023-09-12T00:33:25;332.90;128.00
55331;DHT22;58851;42.984;20.336;2023-09-12T00:35:51;332.90;128.00
55331;DHT22;58851;42.984;20.336;2023-09-12T00:38:17;332.90;128.00
55331;DHT22;58851;42.984;20.336;2023-09-12T00:40:43;332.80;128.00
55331;DHT22;58851;42.984;20.336;2023-09-12T00:43:08;332.80;128.00
55331;DHT22;58851;42.984;20.336;2023-09-12T00:45:35;332.80;128.00
55331;DHT22;58851;42.984;20.336;2023-09-12T00:48:03;308.10;128.00
55331;DHT22;58851;42.984;20.336;2023-09-12T00:50:30;308.10;128.00
55331;DHT22;58851;42.984;20.336;2023-09-12T00:52:56;307.90;128.00
55331;DHT22;58851;42.984;20.336;2023-09-12T00:55:23;307.90;128.00
55331;DHT22;58851;42.984;20.336;2023-09-12T00:57:49;307.90;128.00
55331;DHT22;58851;42.984;20.336;2023-09-12T01:00:16;308.00;128.00
55331;DHT22;58851;42.984;20.336;2023-09-12T01:02:44;308.00;128.00
55331;DHT22;58851;42.984;20.336;2023-09-12T01:05:12;307.90;128.00
55331;DHT22;58851;42.984;20.336;2023-09-12T01:07:39;307.90;128.00
55331;DHT22;58851;42.984;20.336;2023-09-12T01:10:06;307.90;128.00
55331;DHT22;58851;42.984;20.336;2023-09-12T01:12:32;307.80;128.00
55331;DHT22;58851;42.984;20.336;2023-09-12T01:14:58;307.70;128.00
55331;DHT22;58851;42.984;20.336;2023-09-12T01:17:24;307.60;128.00
55331;DHT22;58851;42.984;20.336;2023-09-12T01:19:51;307.60;128.00
55331;DHT22;58851;42.984;20.336;2023-09-12T01:25:16;307.50;128.00
55331;DHT22;58851;42.984;20.336;2023-09-12T01:27:51;307.30;128.00
55331;DHT22;58851;42.984;20.336;2023-09-12T01:30:20;307.40;128.00
55331;DHT22;58851;42.984;20.336;2023-09-12T01:32:46;307.40;128.00
55331;DHT22;58851;42.984;20.336;2023-09-12T01:35:13;307.40;128.00
55331;DHT22;58851;42.984;20.336;2023-09-12T01:37:38;307.40;128.00
55331;DHT22;58851;42.984;20.336;2023-09-12T01:40:05;307.40;128.00
55331;DHT22;58851;42.984;20.336;2023-09-12T01:42:37;307.40;128.00
55331;DHT22;58851;42.984;20.336;2023-09-12T01:45:04;307.30;128.00
55331;DHT22;58851;42.984;20.336;2023-09-12T01:47:31;307.30;128.00
55331;DHT22;58851;42.984;20.336;2023-09-12T01:49:59;307.20;384.00
55331;DHT22;58851;42.984;20.336;2023-09-12T01:52:27;307.20;384.00
55331;DHT22;58851;42.984;20.336;2023-09-12T01:54:54;307.20;281.60
55331;DHT22;58851;42.984;20.336;2023-09-12T01:57:21;307.20;563.20
55331;DHT22;58851;42.984;20.336;2023-09-12T01:59:48;307.20;588.80
55331;DHT22;58851;42.984;20.336;2023-09-12T02:02:18;282.50;486.40
55331;DHT22;58851;42.984;20.336;2023-09-12T02:07:31;282.50;435.20
55331;DHT22;58851;42.984;20.336;2023-09-12T02:09:58;282.50;6528.00
55331;DHT22;58851;42.984;20.336;2023-09-12T02:12:24;282.50;537.60
55331;DHT22;58851;42.984;20.336;2023-09-12T02:14:49;282.50;307.20
55331;DHT22;58851;42.984;20.336;2023-09-12T02:17:15;282.40;332.80
55331;DHT22;58851;42.984;20.336;2023-09-12T02:19:41;282.40;384.00
55331;DHT22;58851;42.984;20.336;2023-09-12T02:22:06;282.30;486.40
55331;DHT22;58851;42.984;20.336;2023-09-12T02:24:34;282.40;358.40
55331;DHT22;58851;42.984;20.336;2023-09-12T02:27:00;282.30;384.00
55331;DHT22;58851;42.984;20.336;2023-09-12T02:29:26;282.30;307.20
55331;DHT22;58851;42.984;20.336;2023-09-12T02:31:52;282.20;128.00
55331;DHT22;58851;42.984;20.336;2023-09-12T02:34:17;282.20;6528.00
55331;DHT22;58851;42.984;20.336;2023-09-12T02:36:43;282.20;6528.00
55331;DHT22;58851;42.984;20.336;2023-09-12T02:39:09;282.10;6528.00
55331;DHT22;58851;42.984;20.336;2023-09-12T02:41:35;282.10;6528.00
55331;DHT22;58851;42.984;20.336;2023-09-12T02:44:00;282.00;6528.00
55331;DHT22;58851;42.984;20.336;2023-09-12T02:46:26;282.00;6528.00
55331;DHT22;58851;42.984;20.336;2023-09-12T02:48:52;282.00;6528.00
55331;DHT22;58851;42.984;20.336;2023-09-12T02:51:18;282.00;6528.00
55331;DHT22;58851;42.984;20.336;2023-09-12T02:53:43;282.00;6528.00
55331;DHT22;58851;42.984;20.336;2023-09-12T02:56:09;282.00;6528.00
55331;DHT22;58851;42.984;20.336;2023-09-12T02:58:35;281.90;6528.00
55331;DHT22;58851;42.984;20.336;2023-09-12T03:01:01;281.80;6528.00
55331;DHT22;58851;42.984;20.336;2023-09-12T03:03:29;281.80;6528.00
55331;DHT22;58851;42.984;20.336;2023-09-12T03:06:01;281.80;6528.00
55331;DHT22;58851;42.984;20.336;2023-09-12T03:08:30;281.80;6528.00
55331;DHT22;58851;42.984;20.336;2023-09-12T03:10:57;281.80;6528.00
55331;DHT22;58851;42.984;20.336;2023-09-12T03:13:26;281.80;6528.00
55331;DHT22;58851;42.984;20.336;2023-09-12T03:15:52;281.70;6528.00
55331;DHT22;58851;42.984;20.336;2023-09-12T03:18:18;281.80;6528.00
55331;DHT22;58851;42.984;20.336;2023-09-12T03:20:44;281.70;6528.00
55331;DHT22;58851;42.984;20.336;2023-09-12T03:23:10;281.60;6528.00
55331;DHT22;58851;42.984;20.336;2023-09-12T03:25:37;281.60;6528.00
55331;DHT22;58851;42.984;20.336;2023-09-12T03:28:04;281.60;6528.00
55331;DHT22;58851;42.984;20.336;2023-09-12T03:30:31;256.90;6502.40
55331;DHT22;58851;42.984;20.336;2023-09-12T03:32:56;256.90;6502.40
55331;DHT22;58851;42.984;20.336;2023-09-12T03:35:22;256.90;6502.40
55331;DHT22;58851;42.984;20.336;2023-09-12T03:37:48;256.90;6502.40
55331;DHT22;58851;42.984;20.336;2023-09-12T03:40:14;256.80;6502.40
55331;DHT22;58851;42.984;20.336;2023-09-12T03:42:39;256.80;6502.40
55331;DHT22;58851;42.984;20.336;2023-09-12T03:45:06;256.80;6502.40
55331;DHT22;58851;42.984;20.336;2023-09-12T03:47:32;256.70;6502.40
55331;DHT22;58851;42.984;20.336;2023-09-12T03:49:57;256.70;6502.40
55331;DHT22;58851;42.984;20.336;2023-09-12T03:52:23;256.70;6502.40
55331;DHT22;58851;42.984;20.336;2023-09-12T03:54:49;256.70;6502.40
55331;DHT22;58851;42.984;20.336;2023-09-12T03:57:15;256.70;6502.40
55331;DHT22;58851;42.984;20.336;2023-09-12T03:59:40;256.60;6502.40
55331;DHT22;58851;42.984;20.336;2023-09-12T04:02:06;256.60;6502.40
55331;DHT22;58851;42.984;20.336;2023-09-12T04:04:32;256.60;6502.40
55331;DHT22;58851;42.984;20.336;2023-09-12T04:06:58;256.50;6502.40
55331;DHT22;58851;42.984;20.336;2023-09-12T04:09:23;256.50;6502.40
55331;DHT22;58851;42.984;20.336;2023-09-12T04:11:49;256.50;6502.40
55331;DHT22;58851;42.984;20.336;2023-09-12T04:14:15;256.40;6502.40
55331;DHT22;58851;42.984;20.336;2023-09-12T04:16:41;256.40;6502.40
55331;DHT22;58851;42.984;20.336;2023-09-12T04:19:06;256.40;6502.40
55331;DHT22;58851;42.984;20.336;2023-09-12T04:21:32;256.40;6502.40
55331;DHT22;58851;42.984;20.336;2023-09-12T04:23:58;256.40;6502.40
55331;DHT22;58851;42.984;20.336;2023-09-12T04:26:24;256.50;6502.40
55331;DHT22;58851;42.984;20.336;2023-09-12T04:28:49;256.50;6502.40
55331;DHT22;58851;42.984;20.336;2023-09-12T04:31:16;256.50;6502.40
55331;DHT22;58851;42.984;20.336;2023-09-12T04:33:41;256.50;6502.40
55331;DHT22;58851;42.984;20.336;2023-09-12T04:36:07;256.50;6502.40
55331;DHT22;58851;42.984;20.336;2023-09-12T04:38:33;256.40;6502.40
55331;DHT22;58851;42.984;20.336;2023-09-12T04:41:02;256.40;6502.40
55331;DHT22;58851;42.984;20.336;2023-09-12T04:43:31;256.40;6502.40
55331;DHT22;58851;42.984;20.336;2023-09-12T04:45:57;256.40;6502.40
55331;DHT22;58851;42.984;20.336;2023-09-12T04:48:23;256.40;6502.40
55331;DHT22;58851;42.984;20.336;2023-09-12T04:50:48;256.50;6502.40
55331;DHT22;58851;42.984;20.336;2023-09-12T04:53:14;256.50;6502.40
55331;DHT22;58851;42.984;20.336;2023-09-12T04:55:40;256.50;6502.40
55331;DHT22;58851;42.984;20.336;2023-09-12T04:58:06;256.50;6502.40
55331;DHT22;58851;42.984;20.336;2023-09-12T05:00:33;256.50;6502.40
55331;DHT22;58851;42.984;20.336;2023-09-12T05:02:59;256.60;6502.40
55331;DHT22;58851;42.984;20.336;2023-09-12T05:05:25;256.60;6502.40
55331;DHT22;58851;42.984;20.336;2023-09-12T05:07:51;256.60;6502.40
55331;DHT22;58851;42.984;20.336;2023-09-12T05:10:17;256.70;6502.40
55331;DHT22;58851;42.984;20.336;2023-09-12T05:12:44;256.70;6502.40
55331;DHT22;58851;42.984;20.336;2023-09-12T05:15:10;256.70;6502.40
55331;DHT22;58851;42.984;20.336;2023-09-12T05:17:36;256.70;6502.40
55331;DHT22;58851;42.984;20.336;2023-09-12T05:20:05;256.80;6502.40
55331;DHT22;58851;42.984;20.336;2023-09-12T05:22:31;256.80;6502.40
55331;DHT22;58851;42.984;20.336;2023-09-12T05:24:57;256.90;6502.40
55331;DHT22;58851;42.984;20.336;2023-09-12T05:27:22;281.60;6528.00
55331;DHT22;58851;42.984;20.336;2023-09-12T05:29:48;281.60;6528.00
55331;DHT22;58851;42.984;20.336;2023-09-12T05:32:14;281.70;6528.00
55331;DHT22;58851;42.984;20.336;2023-09-12T05:34:42;281.80;6528.00
55331;DHT22;58851;42.984;20.336;2023-09-12T05:37:07;281.90;6528.00
55331;DHT22;58851;42.984;20.336;2023-09-12T05:39:33;281.90;6528.00
55331;DHT22;58851;42.984;20.336;2023-09-12T05:41:59;282.00;6528.00
55331;DHT22;58851;42.984;20.336;2023-09-12T05:44:25;282.10;6528.00
55331;DHT22;58851;42.984;20.336;2023-09-12T05:46:50;282.20;6528.00
55331;DHT22;58851;42.984;20.336;2023-09-12T05:49:16;282.30;6528.00
55331;DHT22;58851;42.984;20.336;2023-09-12T05:51:42;282.40;6528.00
55331;DHT22;58851;42.984;20.336;2023-09-12T05:54:09;282.50;6528.00
55331;DHT22;58851;42.984;20.336;2023-09-12T05:56:35;307.20;128.00
55331;DHT22;58851;42.984;20.336;2023-09-12T05:59:01;307.30;128.00
55331;DHT22;58851;42.984;20.336;2023-09-12T06:01:27;307.40;128.00
55331;DHT22;58851;42.984;20.336;2023-09-12T06:03:53;307.50;128.00
55331;DHT22;58851;42.984;20.336;2023-09-12T06:06:19;307.60;128.00
55331;DHT22;58851;42.984;20.336;2023-09-12T06:08:45;307.80;128.00
55331;DHT22;58851;42.984;20.336;2023-09-12T06:11:11;307.80;128.00
55331;DHT22;58851;42.984;20.336;2023-09-12T06:13:37;307.90;128.00
55331;DHT22;58851;42.984;20.336;2023-09-12T06:16:04;307.90;128.00
55331;DHT22;58851;42.984;20.336;2023-09-12T06:18:31;308.10;128.00
55331;DHT22;58851;42.984;20.336;2023-09-12T06:20:58;332.80;128.00
55331;DHT22;58851;42.984;20.336;2023-09-12T06:23:24;332.90;128.00
55331;DHT22;58851;42.984;20.336;2023-09-12T06:25:50;333.00;128.00
55331;DHT22;58851;42.984;20.336;2023-09-12T06:28:30;333.20;128.00
55331;DHT22;58851;42.984;20.336;2023-09-12T06:30:56;333.20;128.00
55331;DHT22;58851;42.984;20.336;2023-09-12T06:33:24;333.30;128.00
55331;DHT22;58851;42.984;20.336;2023-09-12T06:35:50;333.30;128.00
55331;DHT22;58851;42.984;20.336;2023-09-12T06:38:18;333.40;128.00
55331;DHT22;58851;42.984;20.336;2023-09-12T06:40:45;333.60;128.00
55331;DHT22;58851;42.984;20.336;2023-09-12T06:43:12;333.70;128.00
55331;DHT22;58851;42.984;20.336;2023-09-12T06:45:37;358.40;128.00
55331;DHT22;58851;42.984;20.336;2023-09-12T06:48:04;358.50;128.00
55331;DHT22;58851;42.984;20.336;2023-09-12T06:50:30;358.50;409.60
55331;DHT22;58851;42.984;20.336;2023-09-12T06:52:56;358.60;563.20
55331;DHT22;58851;42.984;20.336;2023-09-12T06:55:22;358.70;128.00
55331;DHT22;58851;42.984;20.336;2023-09-12T06:57:47;358.70;128.00
55331;DHT22;58851;42.984;20.336;2023-09-12T07:00:14;358.80;384.00
55331;DHT22;58851;42.984;20.336;2023-09-12T07:02:39;358.90;128.00
55331;DHT22;58851;42.984;20.336;2023-09-12T07:05:05;358.90;486.40
55331;DHT22;58851;42.984;20.336;2023-09-12T07:07:32;359.10;358.40
55331;DHT22;58851;42.984;20.336;2023-09-12T07:09:58;359.30;128.00
55331;DHT22;58851;42.984;20.336;2023-09-12T07:12:28;359.30;512.00
55331;DHT22;58851;42.984;20.336;2023-09-12T07:14:54;384.00;128.00
55331;DHT22;58851;42.984;20.336;2023-09-12T07:17:21;384.20;128.00
55331;DHT22;58851;42.984;20.336;2023-09-12T07:19:47;384.30;128.00
55331;DHT22;58851;42.984;20.336;2023-09-12T07:22:13;384.50;128.00
55331;DHT22;58851;42.984;20.336;2023-09-12T07:24:39;384.70;128.00
55331;DHT22;58851;42.984;20.336;2023-09-12T07:27:05;384.80;128.00
55331;DHT22;58851;42.984;20.336;2023-09-12T07:29:30;409.60;128.00
55331;DHT22;58851;42.984;20.336;2023-09-12T07:31:56;409.80;128.00
55331;DHT22;58851;42.984;20.336;2023-09-12T07:34:24;410.00;128.00
55331;DHT22;58851;42.984;20.336;2023-09-12T07:36:50;410.10;128.00
55331;DHT22;58851;42.984;20.336;2023-09-12T07:39:17;410.10;128.00
55331;DHT22;58851;42.984;20.336;2023-09-12T07:41:43;410.20;128.00
55331;DHT22;58851;42.984;20.336;2023-09-12T07:44:09;410.30;128.00
55331;DHT22;58851;42.984;20.336;2023-09-12T07:46:37;410.40;128.00
55331;DHT22;58851;42.984;20.336;2023-09-12T07:49:03;435.20;128.00
55331;DHT22;58851;42.984;20.336;2023-09-12T07:51:29;435.30;128.00
55331;DHT22;58851;42.984;20.336;2023-09-12T07:53:55;435.40;128.00
55331;DHT22;58851;42.984;20.336;2023-09-12T07:56:21;435.60;128.00
55331;DHT22;58851;42.984;20.336;2023-09-12T07:58:46;435.80;128.00
55331;DHT22;58851;42.984;20.336;2023-09-12T08:01:14;435.90;128.00
55331;DHT22;58851;42.984;20.336;2023-09-12T08:03:42;436.00;128.00
55331;DHT22;58851;42.984;20.336;2023-09-12T08:06:09;460.80;128.00
55331;DHT22;58851;42.984;20.336;2023-09-12T08:08:35;461.00;128.00
55331;DHT22;58851;42.984;20.336;2023-09-12T08:11:01;461.10;128.00
55331;DHT22;58851;42.984;20.336;2023-09-12T08:13:28;461.20;128.00
55331;DHT22;58851;42.984;20.336;2023-09-12T08:15:54;461.20;128.00
55331;DHT22;58851;42.984;20.336;2023-09-12T08:18:20;461.40;128.00
55331;DHT22;58851;42.984;20.336;2023-09-12T08:20:46;461.50;128.00
55331;DHT22;58851;42.984;20.336;2023-09-12T08:23:11;461.70;128.00
55331;DHT22;58851;42.984;20.336;2023-09-12T08:25:38;486.40;128.00
55331;DHT22;58851;42.984;20.336;2023-09-12T08:28:04;486.50;128.00
55331;DHT22;58851;42.984;20.336;2023-09-12T08:30:30;486.70;128.00
55331;DHT22;58851;42.984;20.336;2023-09-12T08:32:56;486.90;128.00
55331;DHT22;58851;42.984;20.336;2023-09-12T08:35:22;487.00;128.00
55331;DHT22;58851;42.984;20.336;2023-09-12T08:37:48;487.30;128.00
55331;DHT22;58851;42.984;20.336;2023-09-12T08:40:13;512.00;128.00
55331;DHT22;58851;42.984;20.336;2023-09-12T08:42:44;512.10;128.00
55331;DHT22;58851;42.984;20.336;2023-09-12T08:45:15;512.10;128.00
55331;DHT22;58851;42.984;20.336;2023-09-12T08:47:43;512.30;128.00
55331;DHT22;58851;42.984;20.336;2023-09-12T08:50:14;512.50;128.00
55331;DHT22;58851;42.984;20.336;2023-09-12T08:52:41;512.60;128.00
55331;DHT22;58851;42.984;20.336;2023-09-12T08:55:10;512.90;128.00
55331;DHT22;58851;42.984;20.336;2023-09-12T08:57:40;537.60;128.00
55331;DHT22;58851;42.984;20.336;2023-09-12T09:00:06;537.80;128.00
55331;DHT22;58851;42.984;20.336;2023-09-12T09:02:35;537.80;128.00
55331;DHT22;58851;42.984;20.336;2023-09-12T09:05:02;538.10;128.00
55331;DHT22;58851;42.984;20.336;2023-09-12T09:07:35;538.20;128.00
55331;DHT22;58851;42.984;20.336;2023-09-12T09:10:04;538.30;665.60
55331;DHT22;58851;42.984;20.336;2023-09-12T09:12:37;538.50;435.20
55331;DHT22;58851;42.984;20.336;2023-09-12T09:15:28;563.20;307.20
55331;DHT22;58851;42.984;20.336;2023-09-12T09:17:58;563.30;307.20
55331;DHT22;58851;42.984;20.336;2023-09-12T09:20:31;563.50;128.00
55331;DHT22;58851;42.984;20.336;2023-09-12T09:22:57;563.70;128.00
55331;DHT22;58851;42.984;20.336;2023-09-12T09:25:23;563.80;128.00
55331;DHT22;58851;42.984;20.336;2023-09-12T09:27:49;564.00;128.00
55331;DHT22;58851;42.984;20.336;2023-09-12T09:30:15;588.90;128.00
55331;DHT22;58851;42.984;20.336;2023-09-12T09:32:41;589.20;128.00
55331;DHT22;58851;42.984;20.336;2023-09-12T09:35:07;589.30;128.00
55331;DHT22;58851;42.984;20.336;2023-09-12T09:37:34;589.40;128.00
55331;DHT22;58851;42.984;20.336;2023-09-12T09:40:00;589.50;128.00
55331;DHT22;58851;42.984;20.336;2023-09-12T09:42:30;589.70;128.00
55331;DHT22;58851;42.984;20.336;2023-09-12T09:44:56;614.40;128.00
55331;DHT22;58851;42.984;20.336;2023-09-12T09:47:22;614.60;128.00
55331;DHT22;58851;42.984;20.336;2023-09-12T09:49:48;614.70;128.00
55331;DHT22;58851;42.984;20.336;2023-09-12T09:52:16;614.80;128.00
55331;DHT22;58851;42.984;20.336;2023-09-12T09:54:50;614.90;128.00
55331;DHT22;58851;42.984;20.336;2023-09-12T09:57:16;615.10;128.00
55331;DHT22;58851;42.984;20.336;2023-09-12T09:59:41;615.20;128.00
55331;DHT22;58851;42.984;20.336;2023-09-12T10:02:13;640.00;128.00
55331;DHT22;58851;42.984;20.336;2023-09-12T10:04:43;640.10;128.00
55331;DHT22;58851;42.984;20.336;2023-09-12T10:07:09;640.20;128.00
55331;DHT22;58851;42.984;20.336;2023-09-12T10:09:35;640.40;128.00
55331;DHT22;58851;42.984;20.336;2023-09-12T10:12:02;640.50;128.00
55331;DHT22;58851;42.984;20.336;2023-09-12T10:14:28;640.50;128.00
55331;DHT22;58851;42.984;20.336;2023-09-12T10:17:01;640.60;128.00
55331;DHT22;58851;42.984;20.336;2023-09-12T10:19:39;640.60;128.00
55331;DHT22;58851;42.984;20.336;2023-09-12T10:22:21;640.70;128.00
55331;DHT22;58851;42.984;20.336;2023-09-12T10:24:50;640.90;128.00
55331;DHT22;58851;42.984;20.336;2023-09-12T10:27:22;640.90;128.00
55331;DHT22;58851;42.984;20.336;2023-09-12T10:29:50;640.90;128.00
55331;DHT22;58851;42.984;20.336;2023-09-12T10:32:19;665.60;153.60
55331;DHT22;58851;42.984;20.336;2023-09-12T10:34:48;665.60;153.60
55331;DHT22;58851;42.984;20.336;2023-09-12T10:37:19;665.80;153.60
55331;DHT22;58851;42.984;20.336;2023-09-12T10:39:49;665.80;153.60
55331;DHT22;58851;42.984;20.336;2023-09-12T10:42:16;665.90;153.60
55331;DHT22;58851;42.984;20.336;2023-09-12T10:44:44;665.90;153.60
55331;DHT22;58851;42.984;20.336;2023-09-12T10:47:11;666.20;153.60
55331;DHT22;58851;42.984;20.336;2023-09-12T10:49:37;666.30;153.60
55331;DHT22;58851;42.984;20.336;2023-09-12T10:52:03;666.40;153.60
55331;DHT22;58851;42.984;20.336;2023-09-12T10:54:40;666.40;153.60
55331;DHT22;58851;42.984;20.336;2023-09-12T10:57:07;691.20;153.60
55331;DHT22;58851;42.984;20.336;2023-09-12T10:59:33;691.50;153.60
55331;DHT22;58851;42.984;20.336;2023-09-12T11:02:28;691.50;153.60
55331;DHT22;58851;42.984;20.336;2023-09-12T11:04:55;691.80;153.60
55331;DHT22;58851;42.984;20.336;2023-09-12T11:07:44;692.00;153.60
55331;DHT22;58851;42.984;20.336;2023-09-12T11:12:47;717.10;179.20
55331;DHT22;58851;42.984;20.336;2023-09-12T11:15:14;717.00;179.20
55331;DHT22;58851;42.984;20.336;2023-09-12T11:17:41;717.00;179.20
55331;DHT22;58851;42.984;20.336;2023-09-12T11:20:08;717.10;179.20
55331;DHT22;58851;42.984;20.336;2023-09-12T11:22:37;717.20;179.20
55331;DHT22;58851;42.984;20.336;2023-09-12T11:25:26;717.30;179.20
55331;DHT22;58851;42.984;20.336;2023-09-12T11:30:18;717.60;179.20
55331;DHT22;58851;42.984;20.336;2023-09-12T11:32:46;742.50;204.80
55331;DHT22;58851;42.984;20.336;2023-09-12T11:35:13;742.60;204.80
55331;DHT22;58851;42.984;20.336;2023-09-12T11:37:40;742.80;204.80
55331;DHT22;58851;42.984;20.336;2023-09-12T11:42:42;743.10;204.80
55331;DHT22;58851;42.984;20.336;2023-09-12T11:45:11;743.20;204.80
55331;DHT22;58851;42.984;20.336;2023-09-12T11:47:41;743.20;204.80
55331;DHT22;58851;42.984;20.336;2023-09-12T11:50:08;768.10;204.80
55331;DHT22;58851;42.984;20.336;2023-09-12T11:52:36;768.20;204.80
55331;DHT22;58851;42.984;20.336;2023-09-12T11:55:05;768.40;204.80
55331;DHT22;58851;42.984;20.336;2023-09-12T11:57:32;768.40;204.80
55331;DHT22;58851;42.984;20.336;2023-09-12T12:00:02;768.60;204.80
55331;DHT22;58851;42.984;20.336;2023-09-12T12:02:34;768.70;204.80
55331;DHT22;58851;42.984;20.336;2023-09-12T12:04:59;768.90;204.80
55331;DHT22;58851;42.984;20.336;2023-09-12T12:07:26;793.60;230.40
55331;DHT22;58851;42.984;20.336;2023-09-12T12:09:52;793.70;230.40
55331;DHT22;58851;42.984;20.336;2023-09-12T12:12:18;793.80;230.40
55331;DHT22;58851;42.984;20.336;2023-09-12T12:14:44;794.10;230.40
55331;DHT22;58851;42.984;20.336;2023-09-12T12:17:11;794.20;230.40
55331;DHT22;58851;42.984;20.336;2023-09-12T12:19:38;794.30;230.40
55331;DHT22;58851;42.984;20.336;2023-09-12T12:22:05;819.20;230.40
55331;DHT22;58851;42.984;20.336;2023-09-12T12:24:46;819.30;230.40
55331;DHT22;58851;42.984;20.336;2023-09-12T12:27:15;819.50;230.40
55331;DHT22;58851;42.984;20.336;2023-09-12T12:29:41;819.50;230.40
55331;DHT22;58851;42.984;20.336;2023-09-12T12:32:10;819.90;230.40
55331;DHT22;58851;42.984;20.336;2023-09-12T12:34:36;820.10;230.40
55331;DHT22;58851;42.984;20.336;2023-09-12T12:37:03;844.80;256.00
55331;DHT22;58851;42.984;20.336;2023-09-12T12:39:29;845.00;256.00
55331;DHT22;58851;42.984;20.336;2023-09-12T12:41:55;845.30;256.00
55331;DHT22;58851;42.984;20.336;2023-09-12T12:44:21;845.30;256.00
55331;DHT22;58851;42.984;20.336;2023-09-12T12:46:49;845.60;256.00
55331;DHT22;58851;42.984;20.336;2023-09-12T12:49:15;845.70;256.00
55331;DHT22;58851;42.984;20.336;2023-09-12T12:51:42;870.50;256.00
55331;DHT22;58851;42.984;20.336;2023-09-12T12:54:08;870.50;256.00
55331;DHT22;58851;42.984;20.336;2023-09-12T12:56:34;870.50;256.00
55331;DHT22;58851;42.984;20.336;2023-09-12T12:59:01;870.70;256.00
55331;DHT22;58851;42.984;20.336;2023-09-12T13:01:36;870.70;256.00
55331;DHT22;58851;42.984;20.336;2023-09-12T13:04:07;871.20;256.00
55331;DHT22;58851;42.984;20.336;2023-09-12T13:06:33;896.20;256.00
55331;DHT22;58851;42.984;20.336;2023-09-12T13:09:02;896.30;256.00
55331;DHT22;58851;42.984;20.336;2023-09-12T13:11:31;896.40;256.00
55331;DHT22;58851;42.984;20.336;2023-09-12T13:14:00;896.50;256.00
55331;DHT22;58851;42.984;20.336;2023-09-12T13:16:27;896.80;256.00
55331;DHT22;58851;42.984;20.336;2023-09-12T13:18:53;921.80;281.60
55331;DHT22;58851;42.984;20.336;2023-09-12T13:21:19;922.20;281.60
55331;DHT22;58851;42.984;20.336;2023-09-12T13:23:45;947.30;281.60
55331;DHT22;58851;42.984;20.336;2023-09-12T13:26:11;947.30;281.60
55331;DHT22;58851;42.984;20.336;2023-09-12T13:28:38;947.70;281.60
55331;DHT22;58851;42.984;20.336;2023-09-12T13:31:04;947.70;281.60
55331;DHT22;58851;42.984;20.336;2023-09-12T13:33:29;947.80;281.60
55331;DHT22;58851;42.984;20.336;2023-09-12T13:35:55;972.80;307.20
55331;DHT22;58851;42.984;20.336;2023-09-12T13:38:21;973.00;307.20
55331;DHT22;58851;42.984;20.336;2023-09-12T13:40:48;973.00;307.20
55331;DHT22;58851;42.984;20.336;2023-09-12T13:43:14;973.00;307.20
55331;DHT22;58851;42.984;20.336;2023-09-12T13:45:40;973.00;307.20
55331;DHT22;58851;42.984;20.336;2023-09-12T13:48:07;973.20;307.20
55331;DHT22;58851;42.984;20.336;2023-09-12T13:50:34;973.70;307.20
55331;DHT22;58851;42.984;20.336;2023-09-12T13:53:01;998.70;332.80
55331;DHT22;58851;42.984;20.336;2023-09-12T13:55:36;998.80;332.80
55331;DHT22;58851;42.984;20.336;2023-09-12T13:58:05;998.70;332.80
55331;DHT22;58851;42.984;20.336;2023-09-12T14:00:33;999.00;332.80
55331;DHT22;58851;42.984;20.336;2023-09-12T14:03:01;999.00;332.80
55331;DHT22;58851;42.984;20.336;2023-09-12T14:05:27;1024.00;332.80
55331;DHT22;58851;42.984;20.336;2023-09-12T14:07:52;1024.50;332.80
55331;DHT22;58851;42.984;20.336;2023-09-12T14:10:18;1024.70;332.80
55331;DHT22;58851;42.984;20.336;2023-09-12T14:15:11;1050.10;358.40
55331;DHT22;58851;42.984;20.336;2023-09-12T14:17:37;1050.30;358.40
55331;DHT22;58851;42.984;20.336;2023-09-12T14:20:04;1050.30;358.40
55331;DHT22;58851;42.984;20.336;2023-09-12T14:22:29;1050.30;358.40
55331;DHT22;58851;42.984;20.336;2023-09-12T14:24:55;1075.20;358.40
55331;DHT22;58851;42.984;20.336;2023-09-12T14:27:21;1050.40;358.40
55331;DHT22;58851;42.984;20.336;2023-09-12T14:29:47;1075.40;358.40
55331;DHT22;58851;42.984;20.336;2023-09-12T14:32:15;1075.30;358.40
55331;DHT22;58851;42.984;20.336;2023-09-12T14:34:40;1075.50;358.40
55331;DHT22;58851;42.984;20.336;2023-09-12T14:39:33;1075.90;358.40
55331;DHT22;58851;42.984;20.336;2023-09-12T14:41:59;1076.10;358.40
55331;DHT22;58851;42.984;20.336;2023-09-12T14:44:27;1076.00;358.40
55331;DHT22;58851;42.984;20.336;2023-09-12T14:46:58;1076.10;358.40
55331;DHT22;58851;42.984;20.336;2023-09-12T14:49:25;1076.10;358.40
55331;DHT22;58851;42.984;20.336;2023-09-12T14:51:51;1100.80;384.00
55331;DHT22;58851;42.984;20.336;2023-09-12T14:54:17;1100.80;384.00
55331;DHT22;58851;42.984;20.336;2023-09-12T14:56:42;1101.10;384.00
55331;DHT22;58851;42.984;20.336;2023-09-12T14:59:08;1101.10;384.00
55331;DHT22;58851;42.984;20.336;2023-09-12T15:01:34;1100.90;384.00